Flight Track Log - Related Links

Times and Time Zones

All times are in EST time to prevent confusion due to time zone crossing. See the AAY855 flight status page for this flight to view local times or setup timezone preferences in your user account.

Time Position Orientation Groundspeed Altitude Reporting Facility
EST Latitude Longitude Course Direction KTS MPH feet Rate Location/Type
Mon 01:20:18 PM 41.6878 -86.3742 195° South 169 194 3,000  Level Chicago Center
Mon 01:21:20 PM 41.6281 -86.3953 195° South 244 281 6,000 3,220 Climbing Chicago Center
Mon 01:22:21 PM 41.5572 -86.3525 156° South 275 316 9,600 3,024 Climbing Chicago Center
Mon 01:23:23 PM 41.4694 -86.3267 168° South 325 374 12,200 2,829 Climbing Chicago Center
Mon 01:24:24 PM 41.3469 -86.2853 166° South 384 442 15,400 2,732 Climbing Chicago Center
Mon 01:25:26 PM 41.2381 -86.2578 169° South 400 460 17,800 3,024 Climbing Chicago Center
Mon 01:26:27 PM 41.1275 -86.2303 169° South 404 465 21,600 2,557 Climbing Chicago Center
Mon 01:27:28 PM 41.0197 -86.1994 168° South 399 459 23,000 1,073 Climbing Chicago Center
Mon 01:28:30 PM 40.9031 -86.1714 170° South 433 498 23,800 1,366 Climbing Chicago Center
Mon 01:29:31 PM 40.7817 -86.1422 170° South 443 510 25,800 1,951 Climbing Chicago Center
Mon 01:30:33 PM 40.6425 -86.1019 168° South 442 509 27,800 1,756 Climbing Chicago Center
Mon 01:31:34 PM 40.5231 -86.0656 167° South 441 507 29,400 1,463 Climbing Chicago Center
Mon 01:32:36 PM 40.4028 -86.0344 169° South 441 507 30,800 1,268 Climbing Chicago Center
Mon 01:33:37 PM 40.2825 -86.0086 171° South 439 505 32,000 732 Climbing Chicago Center
Mon 01:34:39 PM 40.1617 -85.9803 170° South 439 505 32,300 488 Climbing Chicago Center
Mon 01:35:40 PM 40.0392 -85.9475 168° South 446 513 33,000 341 Climbing Indianapolis Center
Mon 01:36:42 PM 39.9142 -85.9139 168° South 451 519 33,000  Level Indianapolis Center
Mon 01:37:43 PM 39.7894 -85.8825 169° South 453 521 33,000  Level Indianapolis Center
Mon 01:38:45 PM 39.6661 -85.8511 169° South 450 518 33,000  Level Indianapolis Center
Mon 01:39:47 PM 39.5414 -85.8214 170° South 451 519 33,000  Level Indianapolis Center
Mon 01:40:48 PM 39.3917 -85.7828 169° South 454 522 33,000  Level Indianapolis Center
Mon 01:41:50 PM 39.2664 -85.7503 169° South 458 527 33,000  Level Indianapolis Center
Mon 01:42:52 PM 39.1419 -85.7197 169° South 456 525 33,000  Level Indianapolis Center
Mon 01:43:53 PM 39.0181 -85.6875 169° South 455 524 33,000  Level Indianapolis Center
Mon 01:44:55 PM 38.8919 -85.6567 169° South 461 531 33,000  Level Indianapolis Center
Mon 01:45:57 PM 38.7669 -85.6256 169° South 459 528 33,000  Level Indianapolis Center
Mon 01:46:58 PM 38.6419 -85.5947 169° South 458 527 33,000  Level Indianapolis Center
Mon 01:48:00 PM 38.5097 -85.5619 169° South 452 520 33,000  Level Indianapolis Center
Mon 01:49:02 PM 38.3864 -85.5322 169° South 449 517 33,000  Level Indianapolis Center
Mon 01:50:03 PM 38.2619 -85.5011 169° South 452 520 33,000  Level Indianapolis Center
Mon 01:51:05 PM 38.1139 -85.4650 169° South 448 516 33,000  Level Indianapolis Center
Mon 01:52:07 PM 37.9914 -85.4367 170° South 444 511 33,000  Level Indianapolis Center
Mon 01:53:20 PM 37.8689 -85.4064 169° South 445 512 33,000  Level Indianapolis Center
Mon 01:54:22 PM 37.7239 -85.3708 169° South 442 509 33,000  Level Indianapolis Center
Mon 01:55:24 PM 37.6008 -85.3408 169° South 447 514 33,000  Level Indianapolis Center
Mon 01:56:26 PM 37.4756 -85.3125 170° South 452 520 33,000  Level Indianapolis Center
Mon 01:57:27 PM 37.3519 -85.2831 169° South 452 520 33,000  Level Indianapolis Center
Mon 01:58:29 PM 37.2086 -85.2478 169° South 449 517 33,000  Level Indianapolis Center
Mon 01:59:30 PM 37.0872 -85.2189 169° South 444 511 33,000  Level Indianapolis Center
Mon 02:00:32 PM 36.9589 -85.1897 170° South 447 514 33,000  Level Indianapolis Center
Mon 02:01:33 PM 36.8367 -85.1600 169° South 449 517 33,000  Level Indianapolis Center
Mon 02:02:35 PM 36.7153 -85.1319 170° South 444 511 33,000  Level Indianapolis Center
Mon 02:03:37 PM 36.5944 -85.1036 169° South 440 506 33,000  Level Indianapolis Center
Mon 02:04:38 PM 36.4725 -85.0756 170° South 445 512 33,000  Level Indianapolis Center
Mon 02:05:40 PM 36.3506 -85.0469 169° South 444 511 33,000  Level Indianapolis Center
Mon 02:06:41 PM 36.2283 -85.0181 169° South 447 514 33,000  Level Indianapolis Center
Mon 02:07:43 PM 36.0806 -84.9828 169° South 451 519 33,000  Level Indianapolis Center
Mon 02:08:45 PM 35.9675 -84.9561 169° South 453 521 33,000  Level Indianapolis Center
Mon 02:09:46 PM 35.8428 -84.9267 169° South 452 520 33,000  Level Indianapolis Center
Mon 02:10:42 PM 35.7153 -84.9083 173° South 458 527 33,000  Level Atlanta Center
Mon 02:11:42 PM 35.5964 -84.8969 176° South 453 521 33,000  Level Atlanta Center
Mon 02:12:42 PM 35.4714 -84.8853 176° South 448 516 33,000  Level Atlanta Center
Mon 02:13:42 PM 35.3483 -84.8739 176° South 443 510 33,000  Level Atlanta Center
Mon 02:14:42 PM 35.2231 -84.8575 174° South 443 510 33,000  Level Atlanta Center
Mon 02:15:42 PM 35.1022 -84.8411 174° South 443 510 33,000  Level Atlanta Center
Mon 02:16:42 PM 34.9772 -84.8297 176° South 443 510 33,000  Level Atlanta Center
Mon 02:17:42 PM 34.8542 -84.8183 176° South 443 510 33,000  Level Atlanta Center
Mon 02:18:42 PM 34.7289 -84.8044 175° South 448 516 33,000  Level Atlanta Center
Mon 02:19:42 PM 34.6183 -84.7883 173° South 448 516 33,000  Level Atlanta Center
Mon 02:20:42 PM 34.4911 -84.7747 175° South 455 524 33,000  Level Atlanta Center
Mon 02:21:42 PM 34.3661 -84.7611 175° South 455 524 33,000  Level Atlanta Center
Mon 02:22:42 PM 34.2408 -84.7500 176° South 455 524 33,000  Level Atlanta Center
Mon 02:23:42 PM 34.0992 -84.7386 176° South 460 529 33,000  Level Atlanta Center
Mon 02:24:42 PM 33.9761 -84.7278 176° South 465 535 33,000  Level Atlanta Center
Mon 02:25:42 PM 33.8531 -84.7117 174° South 455 524 33,000  Level Atlanta Center
Mon 02:26:42 PM 33.7278 -84.6983 175° South 455 524 33,000  Level Atlanta Center
Mon 02:27:42 PM 33.6025 -84.6847 175° South 455 524 33,000  Level Atlanta Center
Mon 02:28:42 PM 33.4878 -84.6739 175° South 461 531 33,000  Level Atlanta Center
Mon 02:29:42 PM 33.3647 -84.6606 175° South 455 524 33,000  Level Atlanta Center
Mon 02:30:42 PM 33.2397 -84.6472 175° South 455 524 33,000  Level Atlanta Center
Mon 02:31:42 PM 33.1144 -84.6367 176° South 460 529 33,000  Level Atlanta Center
Mon 02:32:42 PM 32.9747 -84.6208 175° South 460 529 33,000  Level Atlanta Center
Mon 02:33:42 PM 32.8517 -84.6100 176° South 460 529 33,000  Level Atlanta Center
Mon 02:34:42 PM 32.7264 -84.5944 174° South 455 524 33,000  Level Atlanta Center
Mon 02:35:42 PM 32.5992 -84.5839 176° South 460 529 33,000  Level Atlanta Center
Mon 02:36:42 PM 32.4739 -84.5633 172° South 466 536 33,000  Level Atlanta Center
Mon 02:37:42 PM 32.3614 -84.5528 175° South 461 531 33,000  Level Atlanta Center
Mon 02:38:42 PM 32.2361 -84.5397 175° South 461 531 33,000  Level Atlanta Center
Mon 02:39:42 PM 32.1108 -84.5292 176° South 461 531 33,000  Level Atlanta Center
Mon 02:43:06 PM 31.6783 -84.4819 175° South 476 548 33,000  Level Jacksonville Center
Mon 02:44:06 PM 31.5450 -84.4697 176° South 470 541 33,000  Level Jacksonville Center
Mon 02:45:06 PM 31.4225 -84.4239 162° South 470 541 33,000  Level Jacksonville Center
Mon 02:46:06 PM 31.2831 -84.3756 163° South 470 541 33,000  Level Jacksonville Center
Mon 02:47:06 PM 31.1542 -84.3297 163° South 475 547 33,000 -50 Level Jacksonville Center
Mon 02:48:06 PM 31.0272 -84.2914 165° South 475 547 32,900 -50 Descending Jacksonville Center
Mon 02:49:06 PM 30.8942 -84.2458 164° South 475 547 32,900  Level Jacksonville Center
Mon 02:50:06 PM 30.7672 -84.2053 165° South 475 547 32,900  Level Jacksonville Center
Mon 02:51:06 PM 30.6422 -84.1625 164° South 475 547 32,900  Level Jacksonville Center
Mon 02:52:06 PM 30.5133 -84.1200 164° South 475 547 32,900  Level Jacksonville Center
Mon 02:53:06 PM 30.3842 -84.0772 164° South 475 547 32,900  Level Jacksonville Center
Mon 02:54:06 PM 30.2531 -84.0372 165° South 480 552 32,900  Level Jacksonville Center
Mon 02:55:06 PM 30.1239 -83.9950 164° South 480 552 32,900  Level Jacksonville Center
Mon 02:56:06 PM 29.9969 -83.9550 165° South 480 552 32,900  Level Jacksonville Center
Mon 02:57:06 PM 29.8658 -83.9128 164° South 480 552 32,900  Level Jacksonville Center
Mon 02:58:06 PM 29.7408 -83.8517 157° South 480 552 32,900  Level Jacksonville Center
Mon 02:59:06 PM 29.6206 -83.7717 150° Southeast 485 558 32,900  Level Jacksonville Center
Mon 03:00:06 PM 29.5042 -83.6919 149° Southeast 491 565 32,900 -1,100 Level Jacksonville Center
Mon 03:01:06 PM 29.3814 -83.6122 150° Southeast 498 573 30,700 -2,500 Descending Jacksonville Center
Mon 03:02:06 PM 29.2608 -83.5378 152° Southeast 498 573 27,900 -2,250 Descending Jacksonville Center
Mon 03:03:06 PM 29.1442 -83.4631 151° Southeast 492 566 26,200 -1,100 Descending Jacksonville Center
Mon 03:04:06 PM 29.0381 -83.3983 152° Southeast 487 560 25,700 -1,400 Descending Jacksonville Center
Mon 03:05:06 PM 28.9275 -83.3267 150° Southeast 471 542 23,400 -2,300 Descending Jacksonville Center
Mon 03:06:06 PM 28.8214 -83.2553 149° Southeast 461 531 21,100 -2,145 Descending Jacksonville Center
Mon 03:08:33 PM 28.5667 -83.1000 152° Southeast 410 472 16,000 -2,000 Descending Tampa TRACON
Mon 03:09:33 PM 28.4833 -83.0500 152° Southeast 369 425 14,200 -1,750 Descending Tampa TRACON
Mon 03:10:33 PM 28.4000 -83.0000 152° Southeast 307 353 12,500 -2,000 Descending Tampa TRACON
Mon 03:11:39 PM 28.3167 -82.9333 145° Southeast 293 337 10,000 -1,952 Descending Tampa TRACON
Mon 03:12:39 PM 28.2500 -82.8833 147° Southeast 295 339 8,400 -1,842 Descending Tampa TRACON
Mon 03:13:33 PM 28.2000 -82.8333 139° Southeast 270 311 6,500 -2,350 Descending Tampa TRACON
Mon 03:14:39 PM 28.1333 -82.8000 156° South 278 320 3,700 -1,890 Descending Tampa TRACON
Mon 03:15:40 PM 28.0833 -82.7333 130° Southeast 253 291 2,500 -1,000 Descending Tampa TRACON
Mon 03:16:45 PM 28.0333 -82.6833 139° Southeast 211 243 1,600 -584 Descending Tampa TRACON
Mon 03:17:33 PM 28.0000 -82.6667 156° South 186 214 1,400 -496 Descending Tampa TRACON
Mon 03:18:46 PM 27.9500 -82.7000 210° Southwest 135 155 600 -658 Descending Tampa TRACON

Login

Don't have an account? Register now (free) for customized features, flight alerts, and more!